Time;durP1;ratioP1;P1;durP2;ratioP2;P2;SDS_P1;SDS_P2;PMS_P1;PMS_P2;Temp;Humidity;BMP_temperature;BMP_pressure;BME280_temperature;BME280_humidity;BME280_pressure;Samples;Min_cycle;Max_cycle;Signal;HPM_P1;HPM_P2
2023/07/13 00:01:18;;;;;;;;;20.40;20.40;;;;;28.22;40.42;99136.31;5064910;28;8858;-74
2023/07/13 00:03:46;;;;;;;;;24.25;24.25;;;;;28.26;40.96;99145.78;5029646;28;8872;-74
2023/07/13 00:06:15;;;;;;;;;16.25;15.25;;;;;28.20;41.04;99143.72;5047420;28;8926;-75
2023/07/13 00:08:44;;;;;;;;;23.00;23.00;;;;;28.28;41.16;99146.47;5054895;28;8881;-75
2023/07/13 00:11:13;;;;;;;;;23.50;23.00;;;;;28.36;41.41;99145.69;5081416;28;8874;-74
2023/07/13 00:13:42;;;;;;;;;22.75;22.75;;;;;28.18;42.35;99146.56;5077191;28;8964;-75
2023/07/13 00:16:13;;;;;;;;;22.50;21.75;;;;;28.09;42.88;99146.63;5067757;28;8862;-75
2023/07/13 00:18:43;;;;;;;;;22.50;21.75;;;;;27.87;43.20;99140.66;5060969;28;8868;-75
2023/07/13 00:21:14;;;;;;;;;23.00;21.25;;;;;27.87;43.17;99145.22;5058970;28;8854;-75
2023/07/13 00:23:43;;;;;;;;;27.75;26.75;;;;;27.67;44.51;99134.56;5067817;28;8989;-74
2023/07/13 00:26:13;;;;;;;;;23.25;23.25;;;;;27.68;43.76;99136.25;5082503;28;8880;-76
2023/07/13 00:28:42;;;;;;;;;25.25;25.25;;;;;27.70;43.59;99130.72;5051164;28;8881;-73
2023/07/13 00:31:14;;;;;;;;;25.25;23.25;;;;;27.71;43.75;99127.88;5065259;28;8979;-74
2023/07/13 00:33:45;;;;;;;;;27.00;26.25;;;;;27.76;43.88;99127.38;5066920;28;8917;-74
2023/07/13 00:36:15;;;;;;;;;23.25;22.75;;;;;27.78;43.32;99126.25;5057592;28;8845;-75
2023/07/13 00:38:44;;;;;;;;;24.75;23.25;;;;;27.74;43.08;99124.00;5064765;28;8842;-76
2023/07/13 00:41:12;;;;;;;;;26.00;26.00;;;;;27.65;43.51;99125.78;5086541;28;8885;-76
2023/07/13 00:43:42;;;;;;;;;25.00;25.00;;;;;27.35;44.06;99118.84;5065173;28;8861;-75
2023/07/13 00:46:18;;;;;;;;;23.50;22.25;;;;;26.93;44.84;99119.28;5046324;28;8835;-74
2023/07/13 00:48:50;;;;;;;;;18.75;17.75;;;;;27.23;44.13;99116.34;5066397;28;8864;-74
2023/07/13 00:51:22;;;;;;;;;22.00;21.00;;;;;27.37;43.95;99114.13;5062671;28;8875;-74
2023/07/13 00:53:54;;;;;;;;;28.00;26.33;;;;;27.42;43.58;99112.69;5069461;28;8854;-74
2023/07/13 00:56:24;;;;;;;;;24.50;24.00;;;;;27.48;43.58;99103.13;5061157;28;8845;-74
2023/07/13 00:58:55;;;;;;;;;27.25;24.25;;;;;27.31;44.12;99101.22;5075247;28;8884;-74
2023/07/13 01:01:23;;;;;;;;;25.00;23.25;;;;;27.39;44.34;99107.56;5059801;28;9741;-75
2023/07/13 01:03:54;;;;;;;;;24.00;23.50;;;;;27.36;43.85;99112.44;5068909;28;8884;-75
2023/07/13 01:06:22;;;;;;;;;22.00;20.75;;;;;27.42;43.78;99106.41;5031523;28;8885;-76
2023/07/13 01:08:51;;;;;;;;;25.25;24.00;;;;;27.42;43.83;99110.00;5031702;28;8899;-74
2023/07/13 01:11:22;;;;;;;;;25.25;24.00;;;;;27.47;43.82;99114.06;5031534;28;9626;-74
2023/07/13 01:13:51;;;;;;;;;20.40;20.00;;;;;27.51;43.70;99108.19;5051051;28;8971;-74
2023/07/13 01:16:25;;;;;;;;;22.75;20.50;;;;;27.53;43.67;99114.28;5022522;28;8893;-74
2023/07/13 01:18:58;;;;;;;;;23.75;21.75;;;;;27.51;43.72;99110.91;5011550;28;9607;-75
2023/07/13 01:21:31;;;;;;;;;21.00;21.00;;;;;27.50;43.84;99111.09;5011737;28;8867;-74
2023/07/13 01:24:02;;;;;;;;;23.00;23.00;;;;;27.52;43.95;99109.06;5028081;28;8840;-75
2023/07/13 01:26:30;;;;;;;;;23.25;21.75;;;;;27.54;44.57;99109.78;5028230;28;8860;-73
2023/07/13 01:28:59;;;;;;;;;27.75;25.75;;;;;27.51;44.56;99105.50;5011638;28;8835;-74
2023/07/13 01:31:28;;;;;;;;;22.00;22.00;;;;;27.21;45.11;99107.56;5034306;28;8908;-75
2023/07/13 01:33:58;;;;;;;;;22.25;17.75;;;;;27.24;45.08;99107.22;5051258;28;8997;-74
2023/07/13 01:36:28;;;;;;;;;20.25;20.00;;;;;27.18;45.56;99099.75;5018487;28;9021;-75
2023/07/13 01:38:57;;;;;;;;;23.00;23.00;;;;;26.89;46.41;99099.88;5050951;28;8951;-74
2023/07/13 01:41:26;;;;;;;;;25.75;25.00;;;;;26.94;46.25;99096.72;5033018;28;8876;-73
2023/07/13 01:44:13;;;;;;;;;21.50;21.50;;;;;27.02;46.15;99099.53;5070081;28;8978;-74
2023/07/13 01:46:42;;;;;;;;;27.00;25.00;;;;;26.73;46.92;99099.63;5085798;28;8932;-74
2023/07/13 01:49:12;;;;;;;;;23.50;23.00;;;;;26.67;46.93;99101.91;5069884;28;8860;-74
2023/07/13 01:51:42;;;;;;;;;28.50;26.50;;;;;26.78;46.72;99092.81;5070857;28;8889;-74
2023/07/13 01:54:12;;;;;;;;;24.75;24.25;;;;;26.85;46.51;99091.22;5087782;28;8875;-72
2023/07/13 01:56:41;;;;;;;;;24.00;23.00;;;;;26.94;46.22;99094.84;5087555;28;8832;-75
2023/07/13 01:59:10;;;;;;;;;28.00;25.00;;;;;27.01;46.10;99098.66;5087480;28;8878;-74
2023/07/13 02:01:39;;;;;;;;;24.00;23.50;;;;;27.03;45.92;99095.84;5087507;28;8871;-74
2023/07/13 02:04:08;;;;;;;;;23.50;23.00;;;;;27.07;46.09;99097.25;5085491;28;8867;-75
2023/07/13 02:06:37;;;;;;;;;22.00;22.00;;;;;27.10;46.05;99099.66;5052816;28;8857;-74
2023/07/13 02:09:07;;;;;;;;;18.00;18.00;;;;;27.13;45.62;99102.03;5030457;28;8911;-74
2023/07/13 02:11:35;;;;;;;;;22.00;20.75;;;;;27.03;45.77;99091.31;5030628;28;9599;-73
2023/07/13 02:14:04;;;;;;;;;23.75;20.00;;;;;27.03;45.87;99091.31;5030520;28;8857;-75
2023/07/13 02:16:33;;;;;;;;;24.50;24.25;;;;;26.96;46.20;99087.47;5064507;28;9606;-74
2023/07/13 02:19:02;;;;;;;;;23.50;21.50;;;;;26.90;46.24;99087.22;5047913;28;8869;-73
2023/07/13 02:21:31;;;;;;;;;22.50;21.75;;;;;26.82;46.41;99088.81;5071275;28;8820;-75
2023/07/13 02:23:59;;;;;;;;;22.25;21.00;;;;;26.87;46.43;99093.75;5089849;28;8944;-75
2023/07/13 02:26:30;;;;;;;;;23.00;21.75;;;;;26.91;46.23;99086.22;5089610;28;9682;-75
2023/07/13 02:28:58;;;;;;;;;20.25;20.25;;;;;26.92;46.33;99085.22;5079498;28;8888;-74
2023/07/13 02:31:27;;;;;;;;;22.00;20.75;;;;;26.90;46.51;99084.53;5067978;28;8854;-75
2023/07/13 02:33:56;;;;;;;;;23.75;23.50;;;;;26.90;46.36;99090.78;5051516;28;8874;-75
2023/07/13 02:36:25;;;;;;;;;22.75;21.75;;;;;26.89;46.61;99089.09;5035310;28;9612;-75
2023/07/13 02:38:54;;;;;;;;;23.25;21.50;;;;;26.89;46.69;99082.81;5071340;28;8881;-75
2023/07/13 02:41:23;;;;;;;;;20.25;20.25;;;;;26.76;46.94;99084.03;5086148;28;8850;-75
2023/07/13 02:43:53;;;;;;;;;20.75;20.00;;;;;26.69;46.96;99088.31;5086901;28;8858;-74
2023/07/13 02:46:24;;;;;;;;;22.50;22.50;;;;;26.53;47.15;99091.63;5055622;28;8863;-74
2023/07/13 02:48:53;;;;;;;;;20.50;20.25;;;;;26.35;47.76;99093.34;5066280;28;8864;-74
2023/07/13 02:51:22;;;;;;;;;20.25;19.00;;;;;25.98;48.70;99089.53;5032634;28;9006;-75
2023/07/13 02:53:50;;;;;;;;;14.75;14.75;;;;;26.04;48.06;99080.03;5027680;28;8843;-74
2023/07/13 02:56:23;;;;;;;;;22.50;20.50;;;;;26.00;48.83;99087.56;4997026;28;8904;-74
2023/07/13 02:58:53;;;;;;;;;21.50;20.25;;;;;25.97;48.41;99087.00;5045976;28;8963;-76
2023/07/13 03:01:23;;;;;;;;;23.00;21.25;;;;;25.90;48.87;99095.63;4996120;28;8851;-73
2023/07/13 03:03:53;;;;;;;;;22.00;21.75;;;;;26.02;48.58;99088.28;5029411;28;8870;-75
2023/07/13 03:06:22;;;;;;;;;22.25;22.00;;;;;25.89;49.17;99080.44;5045837;28;9636;-75
2023/07/13 03:08:54;;;;;;;;;22.75;21.75;;;;;26.06;48.09;99084.31;5027333;28;8846;-75
2023/07/13 03:11:24;;;;;;;;;22.75;22.50;;;;;26.02;48.58;99088.28;5013513;28;8916;-74
2023/07/13 03:14:02;;;;;;;;;24.25;22.00;;;;;25.90;48.79;99086.72;5032600;28;8937;-75
2023/07/13 03:16:36;;;;;;;;;24.00;22.50;;;;;25.66;49.64;99082.56;5066023;28;8839;-74
2023/07/13 03:19:05;;;;;;;;;23.50;22.50;;;;;25.81;48.54;99082.97;5048848;28;8893;-75
2023/07/13 03:21:34;;;;;;;;;22.00;22.00;;;;;25.74;48.98;99087.25;5049345;28;8854;-74
2023/07/13 03:24:04;;;;;;;;;23.75;22.00;;;;;25.79;49.01;99081.44;5049231;28;8870;-74
2023/07/13 03:26:33;;;;;;;;;28.00;25.50;;;;;25.70;48.86;99081.31;5065708;28;8901;-75
2023/07/13 03:29:03;;;;;;;;;21.50;20.50;;;;;25.63;49.38;99085.53;5048485;28;8857;-76
2023/07/13 03:31:36;;;;;;;;;22.00;21.25;;;;;25.68;49.13;99080.59;5046873;28;8860;-76
2023/07/13 03:34:05;;;;;;;;;21.00;20.75;;;;;25.56;49.31;99087.09;5046757;28;8857;-74
2023/07/13 03:36:34;;;;;;;;;27.00;25.00;;;;;25.69;48.57;99087.66;5046888;28;8863;-75
2023/07/13 03:39:08;;;;;;;;;20.00;20.00;;;;;25.94;47.63;99087.28;5046917;28;8898;-75
2023/07/13 03:41:58;;;;;;;;;24.25;24.00;;;;;26.16;47.01;99088.81;5047936;28;8965;-76
2023/07/13 03:44:28;;;;;;;;;23.80;21.40;;;;;26.13;46.10;99079.16;5071314;28;8968;-73
2023/07/13 03:46:58;;;;;;;;;21.25;21.00;;;;;26.22;45.31;99080.16;5086855;28;8883;-75
2023/07/13 03:49:27;;;;;;;;;19.25;18.75;;;;;26.20;45.59;99084.84;5070246;28;8863;-74
2023/07/13 03:51:56;;;;;;;;;20.50;19.25;;;;;26.05;45.71;99092.53;5086917;28;8844;-76
2023/07/13 03:54:26;;;;;;;;;18.00;16.80;;;;;26.22;43.94;99090.94;5085927;28;8842;-75
2023/07/13 03:56:55;;;;;;;;;21.50;20.50;;;;;26.27;43.54;99085.97;5065486;28;8850;-74
2023/07/13 03:59:24;;;;;;;;;20.75;20.75;;;;;26.36;42.97;99081.53;5063541;28;9000;-74
2023/07/13 04:01:55;;;;;;;;;26.50;25.00;;;;;26.59;42.06;99087.47;5048555;28;8866;-74
2023/07/13 04:04:23;;;;;;;;;20.75;19.75;;;;;26.71;41.44;99089.00;5065054;28;9564;-77
2023/07/13 04:06:53;;;;;;;;;19.00;18.75;;;;;26.84;40.82;99091.38;5048712;28;8846;-75
2023/07/13 04:09:22;;;;;;;;;22.25;21.00;;;;;26.97;40.82;99101.81;5065201;28;8872;-74
2023/07/13 04:11:51;;;;;;;;;20.00;18.00;;;;;27.10;40.50;99104.19;5028407;28;8942;-74
2023/07/13 04:14:20;;;;;;;;;23.00;21.75;;;;;27.22;40.30;99109.25;5048543;28;8961;-74
2023/07/13 04:16:49;;;;;;;;;19.50;19.25;;;;;27.33;40.08;99113.59;5031058;28;9011;-73
2023/07/13 04:19:19;;;;;;;;;18.50;18.00;;;;;27.46;39.31;99113.22;5029115;28;8886;-74
2023/07/13 04:21:48;;;;;;;;;20.25;20.25;;;;;27.58;39.46;99105.78;5031822;28;8876;-74
2023/07/13 04:24:16;;;;;;;;;20.25;18.00;;;;;27.69;39.17;99108.28;5032136;28;8873;-73
2023/07/13 04:26:45;;;;;;;;;16.75;16.75;;;;;27.76;38.94;99106.66;5049118;28;9092;-73
2023/07/13 04:29:13;;;;;;;;;24.50;22.50;;;;;27.85;38.72;99121.06;5087441;28;8860;-75
2023/07/13 04:31:42;;;;;;;;;19.20;17.80;;;;;27.89;38.14;99124.31;5079212;28;8947;-75
2023/07/13 04:34:11;;;;;;;;;20.50;19.75;;;;;27.98;37.18;99126.09;5068383;28;8935;-73
2023/07/13 04:36:41;;;;;;;;;20.50;20.50;;;;;28.09;36.97;99115.03;5068379;28;8911;-74
2023/07/13 04:39:10;;;;;;;;;20.50;20.50;;;;;28.15;36.35;99109.03;5068295;28;8981;-75
2023/07/13 04:41:39;;;;;;;;;19.25;19.00;;;;;28.26;36.64;99105.25;5068505;28;8931;-74
2023/07/13 04:44:07;;;;;;;;;23.00;22.00;;;;;28.34;35.99;99099.06;5068518;28;8989;-73
2023/07/13 04:46:37;;;;;;;;;26.00;26.00;;;;;28.32;36.53;99101.06;5051490;28;8868;-74
2023/07/13 04:49:06;;;;;;;;;26.25;24.75;;;;;28.43;35.94;99113.47;5055883;28;8970;-74
2023/07/13 04:51:35;;;;;;;;;24.25;23.50;;;;;28.50;35.45;99122.63;5072373;28;8854;-75
2023/07/13 04:54:07;;;;;;;;;30.25;27.00;;;;;28.64;35.39;99118.56;5071081;28;8893;-73
2023/07/13 04:56:36;;;;;;;;;23.25;21.75;;;;;28.74;34.70;99116.56;5070350;28;8924;-74
2023/07/13 04:59:05;;;;;;;;;20.25;19.75;;;;;28.79;34.59;99112.38;5018674;28;8854;-74
2023/07/13 05:01:34;;;;;;;;;17.25;16.25;;;;;28.91;34.64;99112.94;5057785;28;8883;-75
2023/07/13 05:04:02;;;;;;;;;16.75;16.75;;;;;29.01;34.19;99126.38;5050255;28;9019;-75
2023/07/13 05:06:32;;;;;;;;;18.00;16.75;;;;;29.10;33.54;99129.94;4998388;28;8872;-75
2023/07/13 05:09:00;;;;;;;;;18.00;18.00;;;;;29.20;33.70;99136.13;5031480;28;8997;-74
2023/07/13 05:11:30;;;;;;;;;20.00;19.00;;;;;29.33;33.00;99143.75;5050041;28;8856;-75
2023/07/13 05:14:01;;;;;;;;;17.25;17.25;;;;;29.32;32.55;99142.09;5031141;28;8868;-74
2023/07/13 05:16:30;;;;;;;;;18.00;16.75;;;;;29.39;32.63;99143.13;5053475;28;8843;-74
2023/07/13 05:18:58;;;;;;;;;19.40;18.80;;;;;29.49;32.96;99153.81;5085793;28;8908;-73
2023/07/13 05:21:28;;;;;;;;;17.60;16.00;;;;;29.66;32.78;99152.84;5069975;28;8877;-75
2023/07/13 05:23:57;;;;;;;;;19.20;18.40;;;;;29.80;32.94;99155.94;5052522;28;8832;-75
2023/07/13 05:26:28;;;;;;;;;17.60;17.20;;;;;29.91;32.76;99161.91;5088441;28;8882;-76
2023/07/13 05:28:58;;;;;;;;;16.20;16.20;;;;;29.99;32.27;99168.34;5089863;28;8856;-75
2023/07/13 05:31:27;;;;;;;;;22.00;21.40;;;;;29.97;31.59;99176.63;5050495;28;8855;-75
2023/07/13 05:33:56;;;;;;;;;20.00;20.00;;;;;30.14;31.63;99178.38;5069742;28;8869;-74
2023/07/13 05:36:25;;;;;;;;;18.40;17.20;;;;;30.26;31.59;99186.22;5069089;28;8856;-75
2023/07/13 05:38:54;;;;;;;;;15.00;15.00;;;;;30.37;31.81;99188.59;5034668;28;8950;-75
2023/07/13 05:41:23;;;;;;;;;19.00;17.50;;;;;30.44;30.97;99188.75;5066830;28;9709;-76
2023/07/13 05:43:51;;;;;;;;;16.00;15.40;;;;;30.59;31.44;99197.03;5069615;28;8846;-73
2023/07/13 05:46:21;;;;;;;;;15.60;14.80;;;;;30.75;31.09;99205.22;5050964;28;8912;-73
2023/07/13 05:48:50;;;;;;;;;18.20;15.80;;;;;30.82;30.12;99205.34;5068489;28;9513;-75
2023/07/13 05:51:19;;;;;;;;;16.25;16.25;;;;;30.75;30.52;99223.34;5069182;28;8854;-74
2023/07/13 05:53:47;;;;;;;;;18.00;18.00;;;;;30.90;30.10;99235.22;5069399;28;8981;-77
2023/07/13 05:56:17;;;;;;;;;18.00;17.25;;;;;31.00;30.57;99230.44;5067467;28;8971;-75
2023/07/13 05:58:45;;;;;;;;;19.25;18.50;;;;;31.13;30.64;99234.47;5068635;28;8885;-75
2023/07/13 06:01:16;;;;;;;;;16.75;16.75;;;;;31.18;30.33;99240.25;5050276;28;8869;-75
2023/07/13 06:03:46;;;;;;;;;20.00;18.50;;;;;31.28;30.54;99233.63;5063658;28;8856;-73
2023/07/13 06:06:16;;;;;;;;;18.25;17.00;;;;;31.33;30.27;99241.22;5047849;28;8845;-75
2023/07/13 06:08:45;;;;;;;;;22.75;21.50;;;;;31.38;29.99;99241.56;5048469;28;8841;-74
2023/07/13 06:11:17;;;;;;;;;15.25;14.25;;;;;31.48;30.02;99225.06;5055165;28;8849;-74
2023/07/13 06:13:45;;;;;;;;;20.00;18.75;;;;;31.48;30.27;99216.91;5033372;28;8854;-76
2023/07/13 06:16:15;;;;;;;;;16.25;16.25;;;;;31.59;30.02;99210.25;5068489;28;8847;-76
2023/07/13 06:18:46;;;;;;;;;17.75;17.75;;;;;31.64;29.90;99196.97;5067498;28;8850;-77
2023/07/13 06:21:16;;;;;;;;;17.25;17.25;;;;;31.59;29.54;99181.19;5018109;28;8846;-76
2023/07/13 06:23:47;;;;;;;;;19.75;19.00;;;;;31.59;29.89;99183.06;5067791;28;8877;-76
2023/07/13 06:26:16;;;;;;;;;22.00;20.75;;;;;31.74;29.71;99188.63;5067092;28;8847;-77
2023/07/13 06:28:45;;;;;;;;;17.25;17.25;;;;;31.84;29.77;99187.34;5067382;28;8925;-66
2023/07/13 06:31:16;;;;;;;;;18.25;18.25;;;;;31.85;29.25;99194.50;5068427;28;8861;-71
2023/07/13 06:33:46;;;;;;;;;17.75;17.00;;;;;31.97;29.76;99194.94;5068181;28;8823;-70
2023/07/13 06:36:15;;;;;;;;;16.25;15.25;;;;;32.07;29.18;99175.66;5067999;28;8893;-69
2023/07/13 06:38:44;;;;;;;;;23.50;21.00;;;;;32.07;28.92;99167.50;5068649;28;8871;-67
2023/07/13 06:41:13;;;;;;;;;21.50;18.00;;;;;32.03;29.04;99183.34;5053634;28;8853;-68
2023/07/13 06:43:42;;;;;;;;;24.75;22.50;;;;;31.06;29.79;99199.88;5066853;28;8880;-68
2023/07/13 06:46:11;;;;;;;;;20.25;19.00;;;;;30.78;29.04;99204.00;5067878;28;8871;-68
2023/07/13 06:48:40;;;;;;;;;20.25;19.25;;;;;30.29;29.42;99210.25;5068572;28;8858;-68
2023/07/13 06:51:10;;;;;;;;;15.25;15.25;;;;;30.78;29.37;99204.84;5045690;28;8853;-68
2023/07/13 06:53:39;;;;;;;;;17.50;17.00;;;;;30.98;28.80;99199.06;5048454;28;8892;-68
2023/07/13 06:56:08;;;;;;;;;20.50;18.00;;;;;31.01;29.07;99190.56;5048159;28;9017;-68
2023/07/13 06:58:37;;;;;;;;;19.50;19.50;;;;;30.56;29.12;99200.09;5048070;28;8892;-67
2023/07/13 07:01:06;;;;;;;;;16.75;16.75;;;;;30.86;29.39;99214.84;5066321;28;8965;-68
2023/07/13 07:03:36;;;;;;;;;18.75;17.75;;;;;30.78;29.48;99212.97;5067663;28;8958;-71
2023/07/13 07:06:15;;;;;;;;;17.75;17.25;;;;;30.91;29.65;99204.31;5063261;28;8875;-74
2023/07/13 07:08:45;;;;;;;;;18.50;17.25;;;;;31.28;29.08;99195.59;5012962;28;8853;-73
2023/07/13 07:11:18;;;;;;;;;15.25;15.25;;;;;31.41;28.46;99196.88;5062842;28;8919;-73
2023/07/13 07:13:46;;;;;;;;;19.50;18.00;;;;;30.81;29.82;99200.97;5068110;28;8912;-74
2023/07/13 07:16:16;;;;;;;;;18.75;17.00;;;;;30.65;30.09;99202.66;5067383;28;8951;-74
2023/07/13 07:18:45;;;;;;;;;18.75;18.00;;;;;31.03;29.75;99199.38;5067638;28;8851;-72
2023/07/13 07:21:15;;;;;;;;;21.25;19.50;;;;;31.29;29.24;99193.72;5016259;28;8862;-73
2023/07/13 07:23:44;;;;;;;;;20.00;18.00;;;;;31.54;29.11;99191.75;5067824;28;9030;-74
2023/07/13 07:26:13;;;;;;;;;15.80;15.40;;;;;31.65;29.23;99185.94;5067189;28;8905;-75
2023/07/13 07:28:42;;;;;;;;;18.75;18.00;;;;;31.25;28.95;99189.66;4999486;28;8862;-73
2023/07/13 07:31:17;;;;;;;;;14.75;13.75;;;;;31.46;29.28;99187.19;5067376;28;8850;-72
2023/07/13 07:33:50;;;;;;;;;120.00;114.75;;;;;31.64;28.54;99180.69;5067355;28;8959;-72
2023/07/13 07:36:21;;;;;;;;;37.00;32.25;;;;;31.61;28.46;99186.47;5067667;28;10214;-70
2023/07/13 07:38:52;;;;;;;;;13.00;13.00;;;;;31.76;28.46;99190.13;5067799;28;8873;-65
2023/07/13 07:41:21;;;;;;;;;21.25;20.50;;;;;31.34;28.87;99191.34;5031593;28;8834;-63
2023/07/13 07:43:53;;;;;;;;;21.50;21.50;;;;;31.37;28.46;99196.44;5067669;28;8843;-75
2023/07/13 07:46:22;;;;;;;;;17.25;17.25;;;;;30.53;30.55;99193.16;5068162;28;8862;-73
2023/07/13 07:48:51;;;;;;;;;18.75;18.50;;;;;30.04;30.89;99203.94;5069397;28;8874;-76
2023/07/13 07:51:21;;;;;;;;;20.50;19.25;;;;;29.69;31.58;99204.03;5069908;28;8857;-74
2023/07/13 07:53:49;;;;;;;;;17.80;16.20;;;;;29.79;31.83;99201.16;5071365;28;8878;-74
2023/07/13 07:56:18;;;;;;;;;20.00;18.00;;;;;29.63;31.39;99201.91;5070068;28;8874;-74
2023/07/13 07:58:50;;;;;;;;;18.00;18.00;;;;;29.69;30.86;99198.63;5052734;28;8877;-74
2023/07/13 08:01:22;;;;;;;;;16.60;16.60;;;;;29.82;30.77;99184.59;5069380;28;8866;-82
2023/07/13 08:03:53;;;;;;;;;14.80;14.80;;;;;29.59;29.78;99186.19;5069016;28;8898;-78
2023/07/13 08:06:27;;;;;;;;;16.80;15.00;;;;;29.37;29.58;99188.47;5071249;28;8847;-76
2023/07/13 08:09:12;;;;;;;;;17.80;16.60;;;;;29.38;30.01;99201.00;5082924;28;8829;-73
2023/07/13 08:11:41;;;;;;;;;18.80;17.20;;;;;29.48;30.59;99190.91;5060277;28;8870;-74
2023/07/13 08:14:12;;;;;;;;;19.25;18.75;;;;;29.94;29.32;99187.84;5071510;28;8947;-75
2023/07/13 08:16:41;;;;;;;;;22.00;22.00;;;;;30.06;30.67;99196.47;5035627;28;8874;-75
2023/07/13 08:19:11;;;;;;;;;17.20;16.60;;;;;30.14;28.67;99191.06;5071516;28;8842;-79
2023/07/13 08:21:42;;;;;;;;;18.00;17.00;;;;;29.70;28.86;99196.75;5071394;28;8835;-77
2023/07/13 08:24:10;;;;;;;;;18.75;16.75;;;;;29.62;28.56;99192.13;5051841;28;8874;-74
2023/07/13 08:26:39;;;;;;;;;23.00;21.25;;;;;29.83;28.65;99188.16;5071701;28;8862;-79
2023/07/13 08:29:08;;;;;;;;;22.00;21.50;;;;;29.71;28.29;99187.63;5092075;28;8845;-78
2023/07/13 08:31:37;;;;;;;;;20.00;19.00;;;;;29.53;29.01;99188.53;5092608;28;8924;-74
2023/07/13 08:34:06;;;;;;;;;24.50;22.00;;;;;29.80;28.73;99178.47;5059195;28;8859;-72
2023/07/13 08:36:35;;;;;;;;;21.00;20.25;;;;;29.94;28.31;99187.84;5109063;28;8861;-75
2023/07/13 08:39:06;;;;;;;;;25.50;23.00;;;;;30.25;28.40;99190.75;5108810;28;8975;-77
2023/07/13 08:41:36;;;;;;;;;23.75;22.50;;;;;30.17;29.25;99192.59;5108722;28;8895;-75
2023/07/13 08:44:17;;;;;;;;;21.00;21.00;;;;;29.95;29.51;99189.50;5109122;28;8829;-70
2023/07/13 08:46:48;;;;;;;;;8.75;8.75;;;;;30.46;29.24;99190.25;5091253;28;8860;-73
2023/07/13 08:49:23;;;;;;;;;22.00;21.25;;;;;30.55;29.13;99191.09;5091770;28;9117;-77
2023/07/13 08:51:57;;;;;;;;;24.50;22.75;;;;;30.20;29.36;99192.28;5108634;28;8986;-74
2023/07/13 08:54:32;;;;;;;;;26.75;25.00;;;;;30.14;30.38;99183.81;5108459;28;8891;-75
2023/07/13 08:57:10;;;;;;;;;27.00;25.00;;;;;30.62;29.27;99180.44;5108636;28;8999;-75
2023/07/13 08:59:39;;;;;;;;;22.00;22.00;;;;;31.23;27.85;99186.28;5083533;28;9611;-75
2023/07/13 09:02:22;;;;;;;;;26.50;26.50;;;;;31.60;27.80;99177.47;5070310;28;9699;-75
2023/07/13 09:04:55;;;;;;;;;23.50;22.75;;;;;31.22;27.90;99182.72;5070083;28;8831;-77
2023/07/13 09:07:52;;;;;;;;;23.50;22.25;;;;;31.28;26.28;99175.75;5070646;28;8842;-72
2023/07/13 09:10:29;;;;;;;;;21.00;20.25;;;;;31.79;26.62;99172.66;5069952;28;8866;-75
2023/07/13 09:13:13;;;;;;;;;19.00;19.00;;;;;32.09;26.43;99168.19;5070316;28;8854;-74
2023/07/13 09:15:47;;;;;;;;;24.75;23.50;;;;;31.45;27.26;99168.38;5070118;28;8932;-74
2023/07/13 09:18:23;;;;;;;;;48.25;40.25;;;;;31.57;27.25;99163.38;5069912;28;8839;-74
2023/07/13 09:20:55;;;;;;;;;24.25;22.25;;;;;31.19;27.89;99158.63;5070825;28;8970;-75
2023/07/13 09:23:28;;;;;;;;;23.25;21.75;;;;;31.58;27.02;99148.75;5070604;28;9631;-76
2023/07/13 09:26:03;;;;;;;;;22.00;21.00;;;;;31.84;27.18;99145.75;5050673;28;8870;-75
2023/07/13 09:28:38;;;;;;;;;24.75;24.75;;;;;32.21;26.85;99141.44;5068491;28;8951;-75
2023/07/13 09:31:13;;;;;;;;;26.50;24.25;;;;;32.41;26.24;99148.06;5070575;28;8858;-76
2023/07/13 09:33:43;;;;;;;;;23.50;22.00;;;;;32.77;26.20;99154.69;5069692;28;8827;-76
2023/07/13 09:36:21;;;;;;;;;22.75;22.25;;;;;33.19;25.95;99154.09;5034467;28;8925;-77
2023/07/13 09:39:02;;;;;;;;;22.00;20.75;;;;;33.36;24.73;99151.16;5050976;28;8881;-77
2023/07/13 09:41:42;;;;;;;;;25.25;22.00;;;;;33.57;23.62;99151.22;5068374;28;8885;-76
2023/07/13 09:44:12;;;;;;;;;25.75;24.75;;;;;33.43;23.26;99149.34;5064338;28;8838;-75
2023/07/13 09:46:46;;;;;;;;;18.25;18.25;;;;;33.53;23.60;99152.63;5069717;28;8904;-76
2023/07/13 09:49:15;;;;;;;;;20.25;20.25;;;;;33.51;23.22;99149.25;5069928;28;8838;-76
2023/07/13 09:51:46;;;;;;;;;20.50;19.25;;;;;33.58;22.79;99152.94;5035586;28;8901;-77
2023/07/13 09:54:24;;;;;;;;;24.75;20.75;;;;;33.88;22.74;99146.53;5001626;28;8855;-75
2023/07/13 09:56:57;;;;;;;;;20.25;19.50;;;;;34.05;22.71;99150.72;5069397;28;9020;-76
2023/07/13 09:59:31;;;;;;;;;21.50;21.50;;;;;34.22;23.64;99139.53;5068097;28;8854;-77
2023/07/13 10:02:00;;;;;;;;;22.50;21.50;;;;;34.32;23.01;99137.31;5069310;28;9774;-76
2023/07/13 10:04:33;;;;;;;;;24.75;24.00;;;;;33.64;23.64;99137.69;5068224;28;9730;-76
2023/07/13 10:07:09;;;;;;;;;19.75;18.50;;;;;33.94;23.70;99134.84;5069660;28;8888;-76
2023/07/13 10:10:02;;;;;;;;;20.25;19.25;;;;;34.12;23.44;99137.16;5068308;28;8862;-76
2023/07/13 10:12:37;;;;;;;;;26.25;25.25;;;;;34.36;23.73;99123.09;5069472;28;8955;-76
2023/07/13 10:15:17;;;;;;;;;23.25;23.25;;;;;34.47;23.06;99129.91;5069025;28;8834;-75
2023/07/13 10:17:54;;;;;;;;;18.50;17.50;;;;;34.56;22.54;99134.16;5068474;28;8866;-76
2023/07/13 10:20:26;;;;;;;;;18.25;18.25;;;;;34.82;22.58;99135.41;5069196;28;8859;-75
2023/07/13 10:23:00;;;;;;;;;20.00;18.75;;;;;34.93;22.37;99137.59;5067813;28;8888;-76
2023/07/13 10:25:34;;;;;;;;;21.00;21.00;;;;;34.99;22.02;99129.66;5068679;28;8846;-76
2023/07/13 10:28:12;;;;;;;;;19.00;18.25;;;;;35.11;21.75;99130.75;5069016;28;8871;-76
2023/07/13 10:30:47;;;;;;;;;20.00;20.00;;;;;35.24;21.88;99129.97;5067806;28;8904;-76
2023/07/13 10:33:15;;;;;;;;;20.75;20.00;;;;;34.52;21.83;99116.50;5067656;28;8850;-78
2023/07/13 10:35:47;;;;;;;;;17.25;17.25;;;;;34.17;21.22;99119.16;5068412;28;8826;-77
2023/07/13 10:38:22;;;;;;;;;21.25;20.75;;;;;33.62;22.57;99112.47;5033083;28;8909;-77
2023/07/13 10:40:58;;;;;;;;;16.25;16.25;;;;;33.51;22.84;99112.97;5067901;28;8877;-75
2023/07/13 10:43:44;;;;;;;;;18.25;18.25;;;;;33.25;23.04;99103.47;5060089;28;8912;-76
2023/07/13 10:46:16;;;;;;;;;18.25;18.25;;;;;33.40;22.65;99107.00;5056852;28;8847;-76
2023/07/13 10:48:50;;;;;;;;;18.75;17.75;;;;;33.91;22.94;99113.44;5050381;28;8854;-79
2023/07/13 10:51:21;;;;;;;;;19.25;19.25;;;;;34.18;22.80;99103.63;5068731;28;8846;-78
2023/07/13 10:54:25;;;;;;;;;20.50;20.50;;;;;34.29;22.22;99114.00;5069064;28;8854;-77
2023/07/13 10:57:14;;;;;;;;;21.75;21.00;;;;;34.63;22.38;99106.94;5068879;28;8874;-79
2023/07/13 10:59:47;;;;;;;;;21.00;20.50;;;;;34.67;21.48;99112.84;5073384;28;8870;-77
2023/07/13 11:02:26;;;;;;;;;21.75;19.50;;;;;34.99;21.17;99113.28;5071070;28;8870;-78
2023/07/13 11:04:57;;;;;;;;;20.00;19.50;;;;;35.19;21.44;99116.06;5039526;28;8858;-77
2023/07/13 11:07:29;;;;;;;;;12.00;10.75;;;;;35.46;21.73;99111.59;5072898;28;8916;-79
2023/07/13 11:10:00;;;;;;;;;27.00;26.25;;;;;35.57;21.27;99113.72;5033165;28;8951;-80
2023/07/13 11:12:52;;;;;;;;;20.75;20.50;;;;;35.84;20.89;99105.63;5067422;28;8951;-79
2023/07/13 11:15:49;;;;;;;;;19.00;18.25;;;;;36.08;20.71;99099.53;5070269;28;8901;-80
2023/07/13 11:18:24;;;;;;;;;19.75;19.00;;;;;36.21;20.77;99096.00;5046982;28;9660;-79
2023/07/13 11:21:14;;;;;;;;;22.75;21.50;;;;;36.48;20.95;99094.06;5064620;28;8933;-80
2023/07/13 11:24:04;;;;;;;;;17.75;16.75;;;;;36.78;20.07;99099.09;5068266;28;8956;-77
2023/07/13 11:26:41;;;;;;;;;23.25;22.00;;;;;37.10;19.96;99098.38;5066783;28;8893;-78
2023/07/13 11:29:22;;;;;;;;;18.50;18.25;;;;;37.10;19.74;99098.38;5068072;28;8925;-77
2023/07/13 11:31:55;;;;;;;;;19.00;19.00;;;;;36.71;19.68;99100.16;5036257;28;8862;-80
2023/07/13 11:34:31;;;;;;;;;18.25;17.50;;;;;35.03;20.83;99082.59;5067078;28;8866;-78
2023/07/13 11:37:01;;;;;;;;;20.50;19.50;;;;;35.14;21.29;99082.00;5067720;28;8846;-77
2023/07/13 11:39:34;;;;;;;;;18.00;16.50;;;;;35.58;21.88;99073.56;5067568;28;9658;-76
2023/07/13 11:42:06;;;;;;;;;20.75;20.00;;;;;36.13;21.86;99077.00;5067326;28;9737;-80
2023/07/13 11:44:35;;;;;;;;;17.75;17.75;;;;;36.67;21.56;99083.31;5068088;28;8961;-76